createdAt,value
2022-12-03T00:00:13.321Z,2.22
2022-12-03T00:01:12.410Z,2.22
2022-12-03T00:02:12.448Z,2.14
2022-12-03T00:03:12.683Z,2.08
2022-12-03T00:04:12.390Z,2.06
2022-12-03T00:05:12.414Z,2.06
2022-12-03T00:06:12.314Z,1.99
2022-12-03T00:07:12.332Z,1.97
2022-12-03T00:08:12.532Z,1.94
2022-12-03T00:09:12.303Z,1.94
2022-12-03T00:10:12.278Z,1.92
2022-12-03T00:11:12.274Z,1.91
2022-12-03T00:12:12.238Z,1.94
2022-12-03T00:13:12.259Z,1.97
2022-12-03T00:14:12.219Z,1.99
2022-12-03T00:15:12.218Z,1.95
2022-12-03T00:16:12.234Z,2.00
2022-12-03T00:17:12.206Z,2.00
2022-12-03T00:18:12.329Z,1.99
2022-12-03T00:19:12.179Z,2.00
2022-12-03T00:20:12.137Z,1.95
2022-12-03T00:21:12.144Z,1.91
2022-12-03T00:22:12.918Z,1.88
2022-12-03T00:23:12.304Z,1.87
2022-12-03T00:24:12.084Z,1.88
2022-12-03T00:25:12.103Z,1.87
2022-12-03T00:26:12.064Z,1.87
2022-12-03T00:27:12.110Z,1.88
2022-12-03T00:28:12.202Z,1.84
2022-12-03T00:29:12.050Z,1.87
2022-12-03T00:30:12.009Z,1.84
2022-12-03T00:31:12.056Z,1.80
2022-12-03T00:32:11.979Z,1.80
2022-12-03T00:33:12.170Z,1.78
2022-12-03T00:34:11.957Z,1.77
2022-12-03T00:35:11.958Z,1.77
2022-12-03T00:36:11.927Z,1.77
2022-12-03T00:37:11.949Z,1.73
2022-12-03T00:38:12.084Z,1.76
2022-12-03T00:39:11.905Z,1.78
2022-12-03T00:40:11.876Z,1.80
2022-12-03T00:41:11.883Z,1.78
2022-12-03T00:42:11.853Z,1.78
2022-12-03T00:43:12.035Z,1.76
2022-12-03T00:44:11.874Z,1.77
2022-12-03T00:45:11.872Z,1.78
2022-12-03T00:46:13.905Z,1.81
2022-12-03T00:47:11.870Z,1.80
2022-12-03T00:48:11.949Z,1.80
2022-12-03T00:49:11.786Z,1.78
2022-12-03T00:50:11.747Z,1.81
2022-12-03T00:51:11.757Z,1.85
2022-12-03T00:52:11.897Z,1.88
2022-12-03T00:53:11.759Z,1.91
2022-12-03T00:54:11.696Z,1.92
2022-12-03T00:55:11.705Z,1.92
2022-12-03T00:56:11.675Z,1.95
2022-12-03T00:57:11.858Z,2.00
2022-12-03T00:58:11.655Z,2.02
2022-12-03T00:59:11.806Z,2.06
2022-12-03T01:00:11.624Z,2.06
2022-12-03T01:01:11.630Z,2.02
2022-12-03T01:02:11.844Z,2.00
2022-12-03T01:03:11.601Z,2.06
2022-12-03T01:04:11.628Z,2.00
2022-12-03T01:05:11.641Z,2.02
2022-12-03T01:06:11.556Z,2.00
2022-12-03T01:07:11.751Z,2.00
2022-12-03T01:08:11.605Z,2.04
2022-12-03T01:09:11.539Z,2.04
2022-12-03T01:10:11.497Z,2.04
2022-12-03T01:11:11.517Z,2.00
2022-12-03T01:12:11.646Z,2.02
2022-12-03T01:13:11.485Z,2.04
2022-12-03T01:14:11.451Z,2.06
2022-12-03T01:15:11.454Z,2.04
2022-12-03T01:16:11.465Z,2.08
2022-12-03T01:17:11.600Z,2.10
2022-12-03T01:18:11.392Z,2.08
2022-12-03T01:19:11.412Z,2.07
2022-12-03T01:20:11.371Z,2.07
2022-12-03T01:21:11.403Z,2.08
2022-12-03T01:22:11.520Z,2.08
2022-12-03T01:23:11.349Z,2.11
2022-12-03T01:24:11.321Z,2.11
2022-12-03T01:25:11.326Z,2.14
2022-12-03T01:26:11.289Z,2.13
2022-12-03T01:27:11.310Z,2.11
2022-12-03T01:28:11.460Z,2.13
2022-12-03T01:29:11.273Z,2.13
2022-12-03T01:30:11.245Z,2.15
2022-12-03T01:31:11.293Z,2.17
2022-12-03T01:32:11.215Z,2.17
2022-12-03T01:33:11.395Z,2.18
2022-12-03T01:34:11.192Z,2.20
2022-12-03T01:35:11.194Z,2.20
2022-12-03T01:36:11.171Z,2.22
2022-12-03T01:37:11.181Z,2.20
2022-12-03T01:38:11.331Z,2.18
2022-12-03T01:39:11.154Z,2.18
2022-12-03T01:40:11.110Z,2.15
2022-12-03T01:41:12.099Z,2.10
2022-12-03T01:42:11.089Z,2.10
2022-12-03T01:43:11.276Z,2.08
2022-12-03T01:44:11.067Z,2.08
2022-12-03T01:45:11.067Z,2.07
2022-12-03T01:46:11.059Z,2.07
2022-12-03T01:47:11.087Z,2.07
2022-12-03T01:48:11.374Z,2.08
2022-12-03T01:49:11.014Z,2.06
2022-12-03T01:50:10.984Z,2.02
2022-12-03T01:51:11.004Z,2.04
2022-12-03T01:52:11.133Z,2.06
2022-12-03T01:53:11.149Z,2.04
2022-12-03T01:54:10.952Z,2.04
2022-12-03T01:55:10.941Z,2.04
2022-12-03T01:56:10.911Z,2.04
2022-12-03T01:57:10.930Z,2.02
2022-12-03T01:58:11.060Z,2.02
2022-12-03T01:59:10.899Z,2.07
2022-12-03T02:00:10.858Z,2.08
2022-12-03T02:01:10.870Z,2.11
2022-12-03T02:02:10.963Z,2.11
2022-12-03T02:03:10.836Z,2.13
2022-12-03T02:04:11.015Z,2.14
2022-12-03T02:05:10.826Z,2.11
2022-12-03T02:06:10.789Z,2.08
2022-12-03T02:07:10.834Z,2.06
2022-12-03T02:08:10.983Z,2.02
2022-12-03T02:09:10.780Z,2.00
2022-12-03T02:10:10.732Z,1.99
2022-12-03T02:11:10.760Z,1.91
2022-12-03T02:12:10.708Z,1.87
2022-12-03T02:13:10.722Z,1.80
2022-12-03T02:14:10.850Z,1.78
2022-12-03T02:15:10.688Z,1.78
2022-12-03T02:16:10.713Z,1.76
2022-12-03T02:17:10.657Z,1.71
2022-12-03T02:18:10.627Z,1.66
2022-12-03T02:19:10.806Z,1.62
2022-12-03T02:20:10.606Z,1.62
2022-12-03T02:21:10.625Z,1.62
2022-12-03T02:22:10.587Z,1.62
2022-12-03T02:23:10.584Z,1.63
2022-12-03T02:24:10.732Z,1.63
2022-12-03T02:25:10.562Z,1.62
2022-12-03T02:26:10.532Z,1.56
2022-12-03T02:27:10.533Z,1.50
2022-12-03T02:28:10.507Z,1.50
2022-12-03T02:29:10.701Z,1.50
2022-12-03T02:30:10.482Z,1.49
2022-12-03T02:31:10.520Z,1.50
2022-12-03T02:32:10.459Z,1.50
2022-12-03T02:33:10.478Z,1.45
2022-12-03T02:34:10.608Z,1.41
2022-12-03T02:35:10.458Z,1.48
2022-12-03T02:36:10.407Z,1.48
2022-12-03T02:37:10.417Z,1.48
2022-12-03T02:38:10.386Z,1.45
2022-12-03T02:39:10.564Z,1.44
2022-12-03T02:40:10.356Z,1.45
2022-12-03T02:41:10.379Z,1.45
2022-12-03T02:42:10.333Z,1.45
2022-12-03T02:43:10.353Z,1.45
2022-12-03T02:44:10.481Z,1.52
2022-12-03T02:45:10.316Z,1.53
2022-12-03T02:46:10.281Z,1.53
2022-12-03T02:47:10.328Z,1.55
2022-12-03T02:48:10.255Z,1.59
2022-12-03T02:49:10.441Z,1.59
2022-12-03T02:50:10.231Z,1.60
2022-12-03T02:51:10.251Z,1.58
2022-12-03T02:52:10.207Z,1.53
2022-12-03T02:53:10.201Z,1.52
2022-12-03T02:54:10.557Z,1.49
2022-12-03T02:55:10.165Z,1.45
2022-12-03T02:56:10.175Z,1.42
2022-12-03T02:57:10.148Z,1.44
2022-12-03T02:58:10.145Z,1.44
2022-12-03T02:59:10.113Z,1.45
2022-12-03T03:00:10.303Z,1.48
2022-12-03T03:01:10.162Z,1.50
2022-12-03T03:02:10.168Z,1.52
2022-12-03T03:03:10.071Z,1.52
2022-12-03T03:04:10.263Z,1.45
2022-12-03T03:05:10.040Z,1.49
2022-12-03T03:06:10.060Z,1.49
2022-12-03T03:07:10.024Z,1.50
2022-12-03T03:08:10.112Z,1.49
2022-12-03T03:09:09.997Z,1.48
2022-12-03T03:10:10.178Z,1.45
2022-12-03T03:11:09.966Z,1.48
2022-12-03T03:12:09.977Z,1.45
2022-12-03T03:13:09.945Z,1.48
2022-12-03T03:14:09.955Z,1.45
2022-12-03T03:15:10.106Z,1.48
2022-12-03T03:16:09.976Z,1.49
2022-12-03T03:17:09.893Z,1.52
2022-12-03T03:18:09.916Z,1.53
2022-12-03T03:19:09.871Z,1.55
2022-12-03T03:20:10.054Z,1.58
2022-12-03T03:21:09.840Z,1.60
2022-12-03T03:22:09.867Z,1.59
2022-12-03T03:23:09.820Z,1.59
2022-12-03T03:24:09.819Z,1.63
2022-12-03T03:25:09.969Z,1.66
2022-12-03T03:26:09.808Z,1.68
2022-12-03T03:27:09.767Z,1.68
2022-12-03T03:28:09.790Z,1.71
2022-12-03T03:29:09.745Z,1.70
2022-12-03T03:30:09.929Z,1.70
2022-12-03T03:31:09.777Z,1.68
2022-12-03T03:32:09.820Z,1.71
2022-12-03T03:33:09.696Z,1.74
2022-12-03T03:34:09.713Z,1.74
2022-12-03T03:35:09.662Z,1.77
2022-12-03T03:36:09.861Z,1.80
2022-12-03T03:37:09.642Z,1.81
2022-12-03T03:38:09.648Z,1.81
2022-12-03T03:39:09.619Z,1.84
2022-12-03T03:40:09.640Z,1.87
2022-12-03T03:41:09.769Z,1.87
2022-12-03T03:42:09.602Z,1.87
2022-12-03T03:43:09.568Z,1.87
2022-12-03T03:44:09.575Z,1.85
2022-12-03T03:45:09.538Z,1.87
2022-12-03T03:46:09.777Z,1.87
2022-12-03T03:47:09.515Z,1.87
2022-12-03T03:48:09.521Z,1.91
2022-12-03T03:49:09.496Z,1.92
2022-12-03T03:50:09.494Z,1.88
2022-12-03T03:51:09.795Z,1.89
2022-12-03T03:52:09.484Z,1.87
2022-12-03T03:53:09.444Z,1.89
2022-12-03T03:54:09.450Z,1.89
2022-12-03T03:55:09.420Z,1.92
2022-12-03T03:56:09.439Z,1.95
2022-12-03T03:57:09.572Z,1.94
2022-12-03T03:58:09.410Z,1.97
2022-12-03T03:59:09.368Z,1.97
2022-12-03T04:00:09.378Z,1.95
2022-12-03T04:01:09.444Z,1.99
2022-12-03T04:02:09.527Z,2.00
2022-12-03T04:03:09.326Z,1.99
2022-12-03T04:04:09.378Z,1.99
2022-12-03T04:05:09.287Z,1.95
2022-12-03T04:06:09.320Z,1.94
2022-12-03T04:07:09.454Z,1.94
2022-12-03T04:08:09.328Z,1.92
2022-12-03T04:09:09.243Z,1.94
2022-12-03T04:10:09.242Z,1.95
2022-12-03T04:11:09.219Z,1.95
2022-12-03T04:12:09.410Z,1.95
2022-12-03T04:13:09.201Z,1.95
2022-12-03T04:14:09.198Z,1.99
2022-12-03T04:15:09.160Z,2.02
2022-12-03T04:16:09.231Z,2.07
2022-12-03T04:17:09.309Z,2.10
2022-12-03T04:18:09.158Z,2.13
2022-12-03T04:19:09.118Z,2.14
2022-12-03T04:20:09.127Z,2.15
2022-12-03T04:21:09.086Z,2.18
2022-12-03T04:22:09.263Z,2.17
2022-12-03T04:23:09.068Z,2.17
2022-12-03T04:24:09.070Z,2.15
2022-12-03T04:25:09.034Z,2.17
2022-12-03T04:26:09.051Z,2.20
2022-12-03T04:27:09.183Z,2.20
2022-12-03T04:28:09.022Z,2.22
2022-12-03T04:29:08.981Z,2.24
2022-12-03T04:30:09.001Z,2.24
2022-12-03T04:31:09.055Z,2.26
2022-12-03T04:32:08.967Z,2.28
2022-12-03T04:33:09.108Z,2.31
2022-12-03T04:34:08.949Z,2.32
2022-12-03T04:35:08.963Z,2.32
2022-12-03T04:36:08.925Z,2.33
2022-12-03T04:37:08.877Z,2.35
2022-12-03T04:38:09.056Z,2.38
2022-12-03T04:39:08.855Z,2.38
2022-12-03T04:40:08.862Z,2.39
2022-12-03T04:41:08.831Z,2.43
2022-12-03T04:42:08.832Z,2.42
2022-12-03T04:43:08.980Z,2.44
2022-12-03T04:44:08.803Z,2.44
2022-12-03T04:45:08.782Z,2.44
2022-12-03T04:46:08.825Z,2.42
2022-12-03T04:47:08.750Z,2.42
2022-12-03T04:48:08.930Z,2.43
2022-12-03T04:49:08.730Z,2.43
2022-12-03T04:50:08.748Z,2.46
2022-12-03T04:51:08.708Z,2.44
2022-12-03T04:52:08.697Z,2.43
2022-12-03T04:53:08.847Z,2.44
2022-12-03T04:54:08.679Z,2.46
2022-12-03T04:55:08.646Z,2.46
2022-12-03T04:56:08.656Z,2.49
2022-12-03T04:57:08.628Z,2.50
2022-12-03T04:58:08.804Z,2.50
2022-12-03T04:59:12.787Z,2.50
2022-12-03T05:00:09.613Z,2.51
2022-12-03T05:01:08.616Z,2.51
2022-12-03T05:02:08.673Z,2.50
2022-12-03T05:03:08.722Z,2.51
2022-12-03T05:04:08.551Z,2.50
2022-12-03T05:05:08.520Z,2.53
2022-12-03T05:06:08.519Z,2.53
2022-12-03T05:07:08.489Z,2.53
2022-12-03T05:08:08.760Z,2.54
2022-12-03T05:09:08.467Z,2.56
2022-12-03T05:10:08.487Z,2.60
2022-12-03T05:11:08.440Z,2.60
2022-12-03T05:12:08.446Z,2.60
2022-12-03T05:13:08.423Z,2.57
2022-12-03T05:14:08.614Z,2.57
2022-12-03T05:15:08.417Z,2.54
2022-12-03T05:16:08.393Z,2.54
2022-12-03T05:17:08.392Z,2.54
2022-12-03T05:18:08.364Z,2.54
2022-12-03T05:19:08.869Z,2.51
2022-12-03T05:20:08.361Z,2.51
2022-12-03T05:21:08.311Z,2.53
2022-12-03T05:22:08.330Z,2.56
2022-12-03T05:23:08.282Z,2.57
2022-12-03T05:24:08.480Z,2.57
2022-12-03T05:25:08.259Z,2.61
2022-12-03T05:26:08.288Z,2.61
2022-12-03T05:27:08.268Z,2.61
2022-12-03T05:28:08.236Z,2.61
2022-12-03T05:29:08.386Z,2.61
2022-12-03T05:30:08.229Z,2.60
2022-12-03T05:31:08.238Z,2.57
2022-12-03T05:32:08.194Z,2.57
2022-12-03T05:33:08.153Z,2.53
2022-12-03T05:34:15.383Z,2.53
2022-12-03T05:35:08.132Z,2.56
2022-12-03T05:36:08.918Z,2.57
2022-12-03T05:37:08.111Z,2.57
2022-12-03T05:38:08.121Z,2.61
2022-12-03T05:39:08.261Z,2.62
2022-12-03T05:40:08.099Z,2.62
2022-12-03T05:41:08.049Z,2.64
2022-12-03T05:42:08.065Z,2.64
2022-12-03T05:43:08.029Z,2.65
2022-12-03T05:44:08.037Z,2.65
2022-12-03T05:45:08.426Z,2.67
2022-12-03T05:46:08.075Z,2.65
2022-12-03T05:47:07.975Z,2.65
2022-12-03T05:48:07.998Z,2.64
2022-12-03T05:49:08.027Z,2.65
2022-12-03T05:50:08.863Z,2.64
2022-12-03T05:51:07.923Z,2.67
2022-12-03T05:52:07.943Z,2.67
2022-12-03T05:53:07.903Z,2.67
2022-12-03T05:54:07.928Z,2.69
2022-12-03T05:55:08.149Z,2.69
2022-12-03T05:56:07.892Z,2.71
2022-12-03T05:57:07.851Z,2.71
2022-12-03T05:58:07.850Z,2.71
2022-12-03T05:59:07.856Z,2.72
2022-12-03T06:00:08.022Z,2.71
2022-12-03T06:01:08.077Z,2.71
2022-12-03T06:02:07.838Z,2.67
2022-12-03T06:03:07.910Z,2.68
2022-12-03T06:04:07.815Z,2.67
2022-12-03T06:05:07.915Z,2.64
2022-12-03T06:06:07.765Z,2.65
2022-12-03T06:07:12.493Z,2.62
2022-12-03T06:08:08.883Z,2.64
2022-12-03T06:09:07.695Z,2.65
2022-12-03T06:10:07.891Z,2.65
2022-12-03T06:11:07.662Z,2.67
2022-12-03T06:12:08.431Z,2.67
2022-12-03T06:13:07.641Z,2.65
2022-12-03T06:14:07.652Z,2.65
2022-12-03T06:15:07.789Z,2.68
2022-12-03T06:16:07.697Z,2.68
2022-12-03T06:17:07.591Z,2.69
2022-12-03T06:18:08.543Z,2.68
2022-12-03T06:19:07.570Z,2.71
2022-12-03T06:20:08.327Z,2.69
2022-12-03T06:21:08.516Z,2.69
2022-12-03T06:22:07.543Z,2.71
2022-12-03T06:23:07.532Z,2.72
2022-12-03T06:24:07.515Z,2.72
2022-12-03T06:25:07.670Z,2.72
2022-12-03T06:26:07.503Z,2.68
2022-12-03T06:27:07.462Z,2.61
2022-12-03T06:28:07.490Z,2.51
2022-12-03T06:29:07.382Z,2.47
2022-12-03T06:30:07.612Z,2.38
2022-12-03T06:31:07.500Z,2.32
2022-12-03T06:32:07.372Z,2.28
2022-12-03T06:33:07.329Z,2.29
2022-12-03T06:34:07.394Z,2.32
2022-12-03T06:35:07.630Z,2.32
2022-12-03T06:36:10.282Z,2.33
2022-12-03T06:37:07.328Z,2.36
2022-12-03T06:38:07.307Z,2.42
2022-12-03T06:39:07.247Z,2.42
2022-12-03T06:40:07.487Z,2.44
2022-12-03T06:41:07.225Z,2.47
2022-12-03T06:42:07.233Z,2.50
2022-12-03T06:43:07.215Z,2.53
2022-12-03T06:44:07.214Z,2.54
2022-12-03T06:45:07.352Z,2.56
2022-12-03T06:46:07.245Z,2.57
2022-12-03T06:47:07.152Z,2.61
2022-12-03T06:48:07.152Z,2.62
2022-12-03T06:49:07.121Z,2.65
2022-12-03T06:50:07.319Z,2.67
2022-12-03T06:51:07.100Z,2.68
2022-12-03T06:52:07.940Z,2.68
2022-12-03T06:53:07.077Z,2.68
2022-12-03T06:54:07.092Z,2.67
2022-12-03T06:55:07.247Z,2.69
2022-12-03T06:56:07.068Z,2.69
2022-12-03T06:57:07.023Z,2.74
2022-12-03T06:58:07.972Z,2.75
2022-12-03T06:59:06.997Z,2.77
2022-12-03T07:00:08.207Z,2.80
2022-12-03T07:01:06.970Z,2.80
2022-12-03T07:02:07.226Z,2.82
2022-12-03T07:03:07.000Z,2.83
2022-12-03T07:04:06.962Z,2.83
2022-12-03T07:05:07.110Z,2.80
2022-12-03T07:06:06.939Z,2.83
2022-12-03T07:07:06.909Z,2.83
2022-12-03T07:08:07.109Z,2.83
2022-12-03T07:09:06.904Z,2.85
2022-12-03T07:10:07.029Z,2.86
2022-12-03T07:11:06.868Z,2.85
2022-12-03T07:12:07.397Z,2.87
2022-12-03T07:13:06.846Z,2.89
2022-12-03T07:14:06.818Z,2.89
2022-12-03T07:15:06.996Z,2.89
2022-12-03T07:16:07.156Z,2.89
2022-12-03T07:17:06.784Z,2.87
2022-12-03T07:18:06.755Z,2.92
2022-12-03T07:19:06.839Z,2.90
2022-12-03T07:20:06.903Z,2.90
2022-12-03T07:21:07.762Z,2.90
2022-12-03T07:22:06.710Z,2.92
2022-12-03T07:23:06.725Z,2.92
2022-12-03T07:24:06.681Z,2.93
2022-12-03T07:25:06.925Z,2.93
2022-12-03T07:26:06.654Z,2.93
2022-12-03T07:27:06.669Z,2.97
2022-12-03T07:28:06.627Z,2.97
2022-12-03T07:29:06.633Z,2.95
2022-12-03T07:30:06.617Z,2.95
2022-12-03T07:31:06.753Z,2.93
2022-12-03T07:32:06.566Z,2.95
2022-12-03T07:33:06.575Z,2.93
2022-12-03T07:34:06.558Z,2.95
2022-12-03T07:35:06.734Z,3.00
2022-12-03T07:36:06.514Z,2.95
2022-12-03T07:37:06.532Z,2.93
2022-12-03T07:38:06.511Z,2.93
2022-12-03T07:39:06.522Z,2.93
2022-12-03T07:40:06.722Z,2.95
2022-12-03T07:41:06.490Z,2.92
2022-12-03T07:42:06.472Z,2.89
2022-12-03T07:43:06.608Z,2.90
2022-12-03T07:44:10.874Z,2.89
2022-12-03T07:45:07.612Z,2.89
2022-12-03T07:46:06.407Z,2.87
2022-12-03T07:47:06.465Z,2.89
2022-12-03T07:48:06.448Z,2.87
2022-12-03T07:49:06.408Z,2.90
2022-12-03T07:50:06.342Z,2.93
2022-12-03T07:51:06.404Z,2.98
2022-12-03T07:52:06.321Z,3.01
2022-12-03T07:53:06.334Z,3.04
2022-12-03T07:54:06.473Z,3.10
2022-12-03T07:55:06.363Z,3.13
2022-12-03T07:56:06.306Z,3.18
2022-12-03T07:57:06.349Z,3.21
2022-12-03T07:58:06.241Z,3.22
2022-12-03T07:59:06.453Z,3.26
2022-12-03T08:00:06.212Z,3.28
2022-12-03T08:01:06.270Z,3.28
2022-12-03T08:02:06.241Z,3.25
2022-12-03T08:03:06.208Z,3.23
2022-12-03T08:04:06.338Z,3.23
2022-12-03T08:05:07.071Z,3.21
2022-12-03T08:06:06.189Z,3.19
2022-12-03T08:07:06.135Z,3.18
2022-12-03T08:08:06.191Z,3.16
2022-12-03T08:09:06.300Z,3.11
2022-12-03T08:10:06.106Z,3.11
2022-12-03T08:11:06.103Z,3.13
2022-12-03T08:12:06.064Z,3.14
2022-12-03T08:13:06.356Z,3.13
2022-12-03T08:14:06.212Z,3.07
2022-12-03T08:15:06.041Z,3.05
2022-12-03T08:16:06.042Z,3.05
2022-12-03T08:17:06.401Z,3.08
2022-12-03T08:18:05.990Z,3.07
2022-12-03T08:19:06.078Z,3.05
2022-12-03T08:20:07.111Z,3.08
2022-12-03T08:21:05.978Z,3.07
2022-12-03T08:22:05.930Z,3.08
2022-12-03T08:23:05.936Z,3.11
2022-12-03T08:24:06.080Z,3.10
2022-12-03T08:25:05.931Z,3.11
2022-12-03T08:26:05.882Z,3.13
2022-12-03T08:27:05.883Z,3.13
2022-12-03T08:28:05.854Z,3.16
2022-12-03T08:29:06.043Z,3.16
2022-12-03T08:30:05.911Z,3.16
2022-12-03T08:31:05.862Z,3.14
2022-12-03T08:32:05.824Z,3.14
2022-12-03T08:33:05.824Z,3.14
2022-12-03T08:34:05.950Z,3.16
2022-12-03T08:35:05.821Z,3.16
2022-12-03T08:36:06.532Z,3.19
2022-12-03T08:37:05.755Z,3.18
2022-12-03T08:38:05.729Z,3.19
2022-12-03T08:39:05.899Z,3.22
2022-12-03T08:40:05.718Z,3.25
2022-12-03T08:41:05.716Z,3.26
2022-12-03T08:42:09.330Z,3.29
2022-12-03T08:43:06.686Z,3.31
2022-12-03T08:44:05.687Z,3.31
2022-12-03T08:45:05.665Z,3.29
2022-12-03T08:46:05.723Z,3.29
2022-12-03T08:47:05.683Z,3.31
2022-12-03T08:48:05.593Z,3.25
2022-12-03T08:49:05.686Z,3.23
2022-12-03T08:50:05.782Z,3.21
2022-12-03T08:51:05.600Z,3.23
2022-12-03T08:52:05.540Z,3.22
2022-12-03T08:53:05.542Z,3.23
2022-12-03T08:54:05.694Z,3.23
2022-12-03T08:55:06.408Z,3.28
2022-12-03T08:56:05.518Z,3.28
2022-12-03T08:57:05.508Z,3.29
2022-12-03T08:58:05.604Z,3.29
2022-12-03T08:59:05.654Z,3.32
2022-12-03T09:00:05.447Z,3.31
2022-12-03T09:01:05.524Z,3.32
2022-12-03T09:02:05.414Z,3.32
2022-12-03T09:03:05.414Z,3.31
2022-12-03T09:04:05.692Z,3.32
2022-12-03T09:05:05.392Z,3.31
2022-12-03T09:06:05.392Z,3.29
2022-12-03T09:07:05.372Z,3.29
2022-12-03T09:08:05.390Z,3.29
2022-12-03T09:09:07.000Z,3.28
2022-12-03T09:10:05.320Z,3.28
2022-12-03T09:11:05.329Z,3.31
2022-12-03T09:12:05.301Z,3.29
2022-12-03T09:13:05.309Z,3.29
2022-12-03T09:14:05.439Z,3.29
2022-12-03T09:15:05.277Z,3.31
2022-12-03T09:16:05.267Z,3.29
2022-12-03T09:17:05.339Z,3.28
2022-12-03T09:18:05.976Z,3.28
2022-12-03T09:19:05.296Z,3.28
2022-12-03T09:20:05.184Z,3.28
2022-12-03T09:21:05.211Z,3.31
2022-12-03T09:22:05.163Z,3.34
2022-12-03T09:23:05.178Z,3.31
2022-12-03T09:24:05.375Z,3.32
2022-12-03T09:25:06.101Z,3.32
2022-12-03T09:26:05.105Z,3.31
2022-12-03T09:27:05.122Z,3.29
2022-12-03T09:28:05.089Z,3.29
2022-12-03T09:29:10.437Z,3.32
2022-12-03T09:30:06.061Z,3.31
2022-12-03T09:31:05.779Z,3.28
2022-12-03T09:32:05.067Z,3.26
2022-12-03T09:33:05.252Z,3.25
2022-12-03T09:34:05.179Z,3.26
2022-12-03T09:35:05.018Z,3.26
2022-12-03T09:36:04.976Z,3.26
2022-12-03T09:37:05.050Z,3.22
2022-12-03T09:38:04.955Z,3.21
2022-12-03T09:39:04.957Z,3.18
2022-12-03T09:40:05.115Z,3.18
2022-12-03T09:41:05.020Z,3.18
2022-12-03T09:42:04.901Z,3.18
2022-12-03T09:43:04.915Z,3.18
2022-12-03T09:44:05.696Z,3.21
2022-12-03T09:45:05.061Z,3.22
2022-12-03T09:46:04.896Z,3.22
2022-12-03T09:47:04.869Z,3.23
2022-12-03T09:48:04.880Z,3.25
2022-12-03T09:49:07.505Z,3.25
2022-12-03T09:50:06.820Z,3.26
2022-12-03T09:51:05.589Z,3.26
2022-12-03T09:52:04.797Z,3.28
2022-12-03T09:53:04.796Z,3.29
2022-12-03T09:54:04.754Z,3.28
2022-12-03T09:55:04.938Z,3.28
2022-12-03T09:56:04.825Z,3.29
2022-12-03T09:57:04.755Z,3.29
2022-12-03T09:58:04.693Z,3.31
2022-12-03T09:59:04.713Z,3.34
2022-12-03T10:00:04.863Z,3.32
2022-12-03T10:01:04.704Z,3.36
2022-12-03T10:02:04.774Z,3.36
2022-12-03T10:03:04.714Z,3.34
2022-12-03T10:04:04.720Z,3.36
2022-12-03T10:05:04.920Z,3.31
2022-12-03T10:06:04.598Z,3.32
2022-12-03T10:07:04.679Z,3.37
2022-12-03T10:08:04.643Z,3.37
2022-12-03T10:09:04.588Z,3.41
2022-12-03T10:10:04.725Z,3.42
2022-12-03T10:11:04.570Z,3.41
2022-12-03T10:12:04.515Z,3.42
2022-12-03T10:13:04.535Z,3.44
2022-12-03T10:14:04.504Z,3.44
2022-12-03T10:15:04.746Z,3.45
2022-12-03T10:16:04.473Z,3.48
2022-12-03T10:17:04.553Z,3.50
2022-12-03T10:18:04.482Z,3.47
2022-12-03T10:19:04.474Z,3.45
2022-12-03T10:20:04.433Z,3.47
2022-12-03T10:21:04.420Z,3.48
2022-12-03T10:22:04.390Z,3.47
2022-12-03T10:23:04.391Z,3.50
2022-12-03T10:24:04.369Z,3.53
2022-12-03T10:25:04.637Z,3.55
2022-12-03T10:26:04.341Z,3.53
2022-12-03T10:27:05.295Z,3.58
2022-12-03T10:28:04.306Z,3.58
2022-12-03T10:29:04.335Z,3.56
2022-12-03T10:30:04.456Z,3.58
2022-12-03T10:31:04.570Z,3.59
2022-12-03T10:32:04.264Z,3.59
2022-12-03T10:33:04.310Z,3.59
2022-12-03T10:34:04.243Z,3.59
2022-12-03T10:35:04.441Z,3.63
2022-12-03T10:36:04.211Z,3.65
2022-12-03T10:37:04.213Z,3.62
2022-12-03T10:38:04.199Z,3.63
2022-12-03T10:39:04.193Z,3.63
2022-12-03T10:40:04.338Z,3.66
2022-12-03T10:41:04.181Z,3.69
2022-12-03T10:42:04.150Z,3.69
2022-12-03T10:43:04.187Z,3.73
2022-12-03T10:44:04.127Z,3.73
2022-12-03T10:45:04.288Z,3.73
2022-12-03T10:46:04.909Z,3.70
2022-12-03T10:47:04.290Z,3.70
2022-12-03T10:48:04.068Z,3.69
2022-12-03T10:49:04.069Z,3.74
2022-12-03T10:50:04.054Z,3.76
2022-12-03T10:51:04.053Z,3.74
2022-12-03T10:52:04.062Z,3.76
2022-12-03T10:53:04.013Z,3.77
2022-12-03T10:54:03.992Z,3.77
2022-12-03T10:55:04.022Z,3.77
2022-12-03T10:56:04.162Z,3.81
2022-12-03T10:57:03.976Z,3.80
2022-12-03T10:58:03.983Z,3.81
2022-12-03T10:59:03.948Z,3.81
2022-12-03T11:00:03.935Z,3.84
2022-12-03T11:01:04.175Z,3.87
2022-12-03T11:02:03.970Z,3.88
2022-12-03T11:03:03.940Z,3.86
2022-12-03T11:04:04.966Z,3.86
2022-12-03T11:05:03.864Z,3.88
2022-12-03T11:06:04.054Z,3.88
2022-12-03T11:07:03.837Z,3.92
2022-12-03T11:08:03.899Z,3.94
2022-12-03T11:09:08.548Z,3.95
2022-12-03T11:10:04.783Z,3.98
2022-12-03T11:11:03.971Z,3.99
2022-12-03T11:12:03.755Z,4.01
2022-12-03T11:13:03.761Z,4.02
2022-12-03T11:14:03.750Z,4.02
2022-12-03T11:15:03.759Z,4.04
2022-12-03T11:16:04.036Z,4.06
2022-12-03T11:17:03.729Z,4.10
2022-12-03T11:18:03.698Z,4.10
2022-12-03T11:19:03.706Z,4.10
2022-12-03T11:20:03.662Z,4.08
2022-12-03T11:21:03.846Z,4.06
2022-12-03T11:22:03.636Z,4.06
2022-12-03T11:23:03.628Z,4.06
2022-12-03T11:24:03.635Z,4.05
2022-12-03T11:25:03.596Z,4.01
2022-12-03T11:26:03.604Z,4.02
2022-12-03T11:27:03.749Z,4.01
2022-12-03T11:28:03.589Z,4.02
2022-12-03T11:29:03.557Z,4.02
2022-12-03T11:30:03.569Z,4.02
2022-12-03T11:31:03.540Z,3.99
2022-12-03T11:32:03.723Z,3.98
2022-12-03T11:33:03.503Z,4.01
2022-12-03T11:34:03.510Z,3.98
2022-12-03T11:35:10.537Z,3.99
2022-12-03T11:36:03.486Z,4.01
2022-12-03T11:37:03.624Z,4.01
2022-12-03T11:38:03.457Z,3.99
2022-12-03T11:39:03.424Z,3.99
2022-12-03T11:40:03.424Z,3.98
2022-12-03T11:41:03.663Z,3.98
2022-12-03T11:42:03.586Z,3.96
2022-12-03T11:43:03.375Z,3.96
2022-12-03T11:44:03.382Z,3.94
2022-12-03T11:45:03.350Z,3.94
2022-12-03T11:46:04.583Z,3.94
2022-12-03T11:47:03.566Z,3.95
2022-12-03T11:48:03.329Z,3.94
2022-12-03T11:49:03.298Z,3.92
2022-12-03T11:50:03.316Z,3.91
2022-12-03T11:51:03.277Z,3.88
2022-12-03T11:52:03.466Z,3.87
2022-12-03T11:53:03.255Z,3.87
2022-12-03T11:54:03.304Z,3.88
2022-12-03T11:55:03.227Z,3.87
2022-12-03T11:56:04.678Z,3.87
2022-12-03T11:57:03.364Z,3.84
2022-12-03T11:58:03.204Z,3.86
2022-12-03T11:59:03.179Z,3.86
2022-12-03T12:00:03.182Z,3.84
2022-12-03T12:01:03.169Z,3.84
2022-12-03T12:02:03.361Z,3.83
2022-12-03T12:03:03.352Z,3.84
2022-12-03T12:04:03.182Z,3.83
2022-12-03T12:05:03.108Z,3.84
2022-12-03T12:06:03.119Z,3.84
2022-12-03T12:07:03.259Z,3.84
2022-12-03T12:08:03.168Z,3.86
2022-12-03T12:09:03.047Z,3.87
2022-12-03T12:10:03.079Z,3.87
2022-12-03T12:11:03.045Z,3.86
2022-12-03T12:12:03.215Z,3.87
2022-12-03T12:13:02.996Z,3.88
2022-12-03T12:14:03.004Z,3.88
2022-12-03T12:15:02.975Z,3.86
2022-12-03T12:16:03.190Z,3.87
2022-12-03T12:17:02.952Z,3.87
2022-12-03T12:18:02.954Z,3.87
2022-12-03T12:19:02.931Z,3.87
2022-12-03T12:20:02.931Z,3.88
2022-12-03T12:21:03.081Z,3.94
2022-12-03T12:22:02.909Z,3.95
2022-12-03T12:23:02.880Z,3.95
2022-12-03T12:24:02.890Z,3.94
2022-12-03T12:25:02.862Z,3.95
2022-12-03T12:26:02.878Z,3.96
2022-12-03T12:27:03.024Z,3.95
2022-12-03T12:28:02.847Z,3.98
2022-12-03T12:29:02.806Z,3.98
2022-12-03T12:30:02.812Z,3.99
2022-12-03T12:31:02.803Z,3.99
2022-12-03T12:32:02.994Z,4.01
2022-12-03T12:33:02.772Z,4.02
2022-12-03T12:34:02.753Z,4.02
2022-12-03T12:35:02.806Z,4.04
2022-12-03T12:36:02.739Z,4.05
2022-12-03T12:37:02.890Z,4.05
2022-12-03T12:38:02.701Z,4.04
2022-12-03T12:39:02.679Z,4.05
2022-12-03T12:40:02.682Z,4.05
2022-12-03T12:41:02.650Z,4.06
2022-12-03T12:42:02.837Z,4.08
2022-12-03T12:43:09.981Z,4.08
2022-12-03T12:44:03.648Z,4.10
2022-12-03T12:45:02.658Z,4.10
2022-12-03T12:46:18.798Z,4.10
2022-12-03T12:47:03.711Z,4.08
2022-12-03T12:48:02.626Z,4.10
2022-12-03T12:49:02.592Z,4.08
2022-12-03T12:50:02.573Z,4.10
2022-12-03T12:51:02.536Z,4.10
2022-12-03T12:52:02.794Z,4.10
2022-12-03T12:53:02.512Z,4.12
2022-12-03T12:54:02.523Z,4.12
2022-12-03T12:55:05.236Z,4.12
2022-12-03T12:56:02.531Z,4.13
2022-12-03T12:57:02.451Z,4.14
2022-12-03T12:58:02.458Z,4.14
2022-12-03T12:59:02.429Z,4.17
2022-12-03T13:00:02.450Z,4.16
2022-12-03T13:01:02.628Z,4.19
2022-12-03T13:02:08.608Z,4.17
2022-12-03T13:03:03.399Z,4.20
2022-12-03T13:04:02.439Z,4.19
2022-12-03T13:05:02.359Z,4.22
2022-12-03T13:06:02.634Z,4.20
2022-12-03T13:07:02.421Z,4.19
2022-12-03T13:08:07.309Z,4.19
2022-12-03T13:09:03.302Z,4.19
2022-12-03T13:10:02.333Z,4.22
2022-12-03T13:11:02.301Z,4.23
2022-12-03T13:12:02.292Z,4.24
2022-12-03T13:13:02.252Z,4.24
2022-12-03T13:14:02.273Z,4.28
2022-12-03T13:15:02.222Z,4.28
2022-12-03T13:16:02.312Z,4.28
2022-12-03T13:17:02.200Z,4.30
2022-12-03T13:18:02.207Z,4.28